Time;durP1;ratioP1;P1;durP2;ratioP2;P2;SDS_P1;SDS_P2;PMS_P1;PMS_P2;Temp;Humidity;BMP_temperature;BMP_pressure;BME280_temperature;BME280_humidity;BME280_pressure;Samples;Min_cycle;Max_cycle;Signal;HPM_P1;HPM_P2
2022/06/06 00:01:15;;;;;;;5.00;4.22;;;;;;;12.31;100.00;99862.84;1754359;81;21057;-67
2022/06/06 00:03:42;;;;;;;6.92;4.67;;;;;;;12.28;100.00;99868.04;1753626;81;21566;-67
2022/06/06 00:06:10;;;;;;;5.85;4.42;;;;;;;12.30;100.00;99868.56;1750066;81;21116;-66
2022/06/06 00:08:39;;;;;;;8.15;5.03;;;;;;;12.32;100.00;99863.66;1735486;81;21068;-67
2022/06/06 00:11:09;;;;;;;7.95;5.08;;;;;;;12.34;100.00;99871.00;1737965;81;21098;-67
2022/06/06 00:13:38;;;;;;;7.37;4.67;;;;;;;12.27;100.00;99854.11;1756106;81;21022;-67
2022/06/06 00:16:06;;;;;;;5.40;4.72;;;;;;;12.39;100.00;99869.63;1733750;81;21110;-66
2022/06/06 00:18:33;;;;;;;6.12;5.00;;;;;;;12.40;100.00;99876.70;1716614;83;21557;-66
2022/06/06 00:21:00;;;;;;;6.72;5.00;;;;;;;12.41;100.00;99871.52;1733903;81;21076;-66
2022/06/06 00:23:26;;;;;;;5.92;4.90;;;;;;;12.43;100.00;99874.23;1739709;81;21592;-67
2022/06/06 00:25:57;;;;;;;6.65;4.85;;;;;;;12.44;100.00;99870.95;1743777;82;21329;-65
2022/06/06 00:28:24;;;;;;;7.62;5.25;;;;;;;12.47;100.00;99874.48;1729047;82;21414;-66
2022/06/06 00:30:57;;;;;;;6.22;5.15;;;;;;;12.48;100.00;99870.13;1720030;82;21529;-66
2022/06/06 00:36:10;;;;;;;6.75;4.90;;;;;;;12.48;100.00;99871.48;1720010;82;21068;-66
2022/06/06 00:38:36;;;;;;;7.55;5.28;;;;;;;12.50;100.00;99871.22;1725156;82;21006;-67
2022/06/06 00:41:03;;;;;;;8.33;5.20;;;;;;;12.51;100.00;99869.28;1729466;82;21130;-67
2022/06/06 00:43:30;;;;;;;7.20;5.15;;;;;;;12.51;100.00;99865.19;1723174;82;21050;-66
2022/06/06 00:45:56;;;;;;;7.72;5.30;;;;;;;12.50;100.00;99869.85;1735950;82;21010;-67
2022/06/06 00:48:36;;;;;;;;;;;;;;;12.48;100.00;99874.22;1730297;82;21503;-67
2022/06/06 00:51:09;;;;;;;6.42;4.92;;;;;;;12.43;100.00;99867.41;1730086;82;20102;-67
2022/06/06 00:53:50;;;;;;;7.17;5.80;;;;;;;12.35;100.00;99864.45;1728099;82;21539;-67
2022/06/06 00:56:34;;;;;;;8.08;5.87;;;;;;;12.31;100.00;99869.66;1733432;81;21055;-67
2022/06/06 00:59:04;;;;;;;8.73;5.92;;;;;;;12.25;100.00;99870.79;1680416;85;21561;-67
2022/06/06 01:01:31;;;;;;;6.92;6.08;;;;;;;12.22;100.00;99873.26;1723828;82;21623;-67
2022/06/06 01:03:58;;;;;;;6.90;6.08;;;;;;;12.22;100.00;99876.78;1736899;82;21513;-67
2022/06/06 01:06:25;;;;;;;6.95;5.78;;;;;;;12.22;100.00;99878.14;1736105;82;20991;-66
2022/06/06 01:08:53;;;;;;;6.92;6.12;;;;;;;12.20;100.00;99880.34;1743417;82;21030;-66
2022/06/06 01:11:20;;;;;;;8.33;6.20;;;;;;;12.17;100.00;99874.09;1695512;84;21087;-66
2022/06/06 01:13:46;;;;;;;7.83;5.85;;;;;;;12.16;100.00;99878.45;1668860;85;21059;-67
2022/06/06 01:16:42;;;;;;;8.45;5.95;;;;;;;12.12;100.00;99874.09;1657248;85;21130;-67
2022/06/06 01:19:16;;;;;;;8.35;5.87;;;;;;;12.10;100.00;99876.30;1688646;82;21072;-66
2022/06/06 01:22:00;;;;;;;7.30;6.17;;;;;;;12.08;100.00;99864.83;1721975;82;21065;-66
2022/06/06 01:24:47;;;;;;;7.97;6.08;;;;;;;12.07;100.00;99862.39;1731138;82;21010;-66
2022/06/06 01:27:51;;;;;;;6.92;6.22;;;;;;;12.04;100.00;99863.77;1728621;82;21018;-66
2022/06/06 01:30:23;;;;;;;9.63;6.28;;;;;;;12.01;100.00;99866.24;1725570;82;21102;-66
2022/06/06 01:32:54;;;;;;;9.48;5.97;;;;;;;11.96;100.00;99867.06;1728955;82;21674;-66
2022/06/06 01:35:26;;;;;;;7.10;6.22;;;;;;;11.93;100.00;99868.98;1750065;82;21018;-67
2022/06/06 01:37:52;;;;;;;7.62;6.62;;;;;;;11.88;100.00;99872.54;1727734;82;21016;-66
2022/06/06 01:40:19;;;;;;;;;;;;;;;11.81;100.00;99872.55;1729484;82;21029;-66
2022/06/06 01:42:56;;;;;;;9.65;6.75;;;;;;;11.77;100.00;99871.47;1727248;82;20552;-66
2022/06/06 01:45:52;;;;;;;8.65;6.80;;;;;;;11.72;100.00;99871.50;1735346;82;21065;-66
2022/06/06 01:48:23;;;;;;;8.73;6.50;;;;;;;11.70;100.00;99875.00;1732501;82;21112;-67
2022/06/06 01:50:50;;;;;;;9.70;6.60;;;;;;;11.67;100.00;99872.83;1739581;82;21030;-66
2022/06/06 01:53:20;;;;;;;8.10;6.60;;;;;;;11.66;100.00;99882.09;1734948;82;21949;-66
2022/06/06 01:55:49;;;;;;;9.78;6.42;;;;;;;11.64;100.00;99883.75;1697732;83;21593;-66
2022/06/06 01:58:28;;;;;;;12.55;8.33;;;;;;;11.63;100.00;99885.38;1683947;84;21130;-66
2022/06/06 02:00:55;;;;;;;14.90;9.23;;;;;;;11.61;100.00;99885.66;1696656;83;21130;-67
2022/06/06 02:03:21;;;;;;;13.90;10.50;;;;;;;11.59;100.00;99884.28;1701042;83;21797;-66
2022/06/06 02:05:48;;;;;;;10.38;8.35;;;;;;;11.59;100.00;99888.38;1707881;83;21087;-67
2022/06/06 02:08:15;;;;;;;11.05;8.95;;;;;;;11.62;100.00;99886.48;1693459;83;21146;-66
2022/06/06 02:10:44;;;;;;;12.13;10.65;;;;;;;11.63;100.00;99890.28;1694009;83;21106;-67
2022/06/06 02:13:11;;;;;;;23.95;19.37;;;;;;;11.65;100.00;99885.39;1711568;83;21593;-67
2022/06/06 02:15:37;;;;;;;;;;;;;;;11.67;100.00;99889.19;1690856;83;21088;-67
2022/06/06 02:18:04;;;;;;;29.57;21.80;;;;;;;11.69;100.00;99892.47;1696203;83;20119;-66
2022/06/06 02:20:31;;;;;;;;;;;;;;;11.66;100.00;99894.36;1698319;82;21053;-67
2022/06/06 02:22:57;;;;;;;25.43;21.15;;;;;;;11.67;100.00;99895.46;1706929;83;20484;-67
2022/06/06 02:25:24;;;;;;;;;;;;;;;11.64;100.00;99901.47;1696010;83;21044;-67
2022/06/06 02:27:53;;;;;;;22.45;20.05;;;;;;;11.66;100.00;99897.91;1699842;83;20611;-67
2022/06/06 02:30:23;;;;;;;22.75;19.55;;;;;;;11.66;100.00;99902.54;1714971;83;21079;-66
2022/06/06 02:32:51;;;;;;;23.22;19.05;;;;;;;11.66;100.00;99897.91;1697701;83;21076;-67
2022/06/06 02:35:21;;;;;;;26.10;18.05;;;;;;;11.65;100.00;99905.02;1685608;84;21585;-67
2022/06/06 02:37:48;;;;;;;21.10;17.05;;;;;;;11.66;100.00;99910.72;1696478;84;21482;-66
2022/06/06 02:40:16;;;;;;;;;;;;;;;11.72;100.00;99910.50;1694315;84;21464;-67
2022/06/06 02:42:42;;;;;;;;;;;;;;;11.79;100.00;99915.13;1700929;84;20107;-67
2022/06/06 02:45:10;;;;;;;11.55;8.88;;;;;;;11.80;100.00;99911.28;1688076;84;20108;-67
2022/06/06 02:47:37;;;;;;;15.28;10.60;;;;;;;11.84;100.00;99912.91;1676707;84;21029;-67
2022/06/06 02:50:06;;;;;;;12.82;10.95;;;;;;;11.89;100.00;99909.64;1687754;84;21674;-66
2022/06/06 02:52:33;;;;;;;14.78;11.33;;;;;;;11.95;100.00;99904.44;1690262;84;21039;-66
2022/06/06 02:55:02;;;;;;;12.40;9.73;;;;;;;12.04;100.00;99910.70;1698643;84;21087;-66
2022/06/06 02:57:29;;;;;;;10.45;9.33;;;;;;;12.12;100.00;99904.11;1680690;84;21059;-67
2022/06/06 02:59:56;;;;;;;10.95;9.30;;;;;;;12.20;100.00;99910.37;1688006;84;21142;-67
2022/06/06 03:02:22;;;;;;;12.58;9.33;;;;;;;12.28;100.00;99906.25;1681169;84;21471;-67
2022/06/06 03:04:49;;;;;;;9.73;8.73;;;;;;;12.34;100.00;99911.95;1686416;84;21082;-67
2022/06/06 03:07:32;;;;;;;10.65;8.08;;;;;;;12.39;100.00;99908.67;1685509;84;21063;-67
2022/06/06 03:10:22;;;;;;;9.38;7.80;;;;;;;12.48;100.00;99915.17;1686945;84;21640;-67
2022/06/06 03:12:54;;;;;;;8.73;7.53;;;;;;;12.56;100.00;99908.31;1673227;84;21047;-67
2022/06/06 03:22:15;;;;;;;8.88;6.50;;;;;;;13.22;100.00;99913.40;1688727;84;21110;-67
2022/06/06 03:25:21;;;;;;;8.08;6.20;;;;;;;13.62;100.00;99916.36;1683328;84;21120;-67
2022/06/06 03:28:17;;;;;;;8.63;7.22;;;;;;;13.95;100.00;99924.53;1667401;85;20996;-68
2022/06/06 03:31:11;;;;;;;8.30;6.75;;;;;;;14.27;100.00;99930.76;1704556;83;21067;-66
2022/06/06 03:34:10;;;;;;;8.73;7.80;;;;;;;14.57;100.00;99930.14;1681864;85;21075;-67
2022/06/06 03:37:03;;;;;;;12.03;9.95;;;;;;;14.97;100.00;99920.56;1700297;84;21633;-66
2022/06/06 03:39:52;;;;;;;11.75;9.35;;;;;;;15.32;100.00;99913.99;1686810;84;21011;-67
2022/06/06 03:42:31;;;;;;;;;;;;;;;15.58;100.00;99906.75;1722192;82;21508;-66
2022/06/06 03:45:40;;;;;;;9.23;7.95;;;;;;;15.83;100.00;99903.02;1721916;82;20508;-66
2022/06/06 03:48:27;;;;;;;8.78;7.15;;;;;;;16.01;100.00;99902.69;1725363;82;20970;-66
2022/06/06 03:51:17;;;;;;;8.70;6.92;;;;;;;16.34;100.00;99898.72;1733303;82;21074;-66
2022/06/06 03:54:16;;;;;;;7.95;7.00;;;;;;;16.62;100.00;99889.09;1728226;82;21595;-68
2022/06/06 03:57:00;;;;;;;8.10;6.17;;;;;;;16.79;100.00;99887.92;1700238;82;21010;-66
2022/06/06 03:59:30;;;;;;;9.18;6.53;;;;;;;16.97;100.00;99885.55;1722203;82;21009;-66
2022/06/06 04:02:03;;;;;;;7.20;6.42;;;;;;;17.16;100.00;99876.59;1739857;82;21062;-66
2022/06/06 04:04:30;;;;;;;8.30;6.20;;;;;;;17.39;100.00;99877.41;1735041;82;21041;-66
2022/06/06 04:06:58;;;;;;;8.85;6.78;;;;;;;17.50;100.00;99867.75;1725245;81;21046;-66
2022/06/06 04:09:27;;;;;;;9.23;6.50;;;;;;;17.53;100.00;99863.58;1736242;82;20986;-64
2022/06/06 04:12:07;;;;;;;9.38;5.97;;;;;;;17.62;100.00;99865.28;1697823;82;21030;-66
2022/06/06 04:15:02;;;;;;;7.03;6.33;;;;;;;17.80;100.00;99868.38;1730940;82;21069;-66
2022/06/06 04:18:01;;;;;;;9.45;6.37;;;;;;;17.81;100.00;99868.64;1729804;82;21436;-66
2022/06/06 04:20:37;;;;;;;7.83;6.40;;;;;;;17.85;100.00;99864.69;1708757;82;21065;-66
2022/06/06 04:23:15;;;;;;;8.05;6.22;;;;;;;17.96;100.00;99860.50;1675648;82;21012;-65
2022/06/06 04:26:07;;;;;;;7.75;5.90;;;;;;;18.18;100.00;99859.05;1726066;82;21055;-66
2022/06/06 04:28:45;;;;;;;8.55;6.33;;;;;;;18.33;100.00;99866.08;1725183;82;21013;-66
2022/06/06 04:31:29;;;;;;;7.78;5.53;;;;;;;18.45;100.00;99868.23;1734245;82;21030;-66
2022/06/06 04:34:19;;;;;;;6.28;5.60;;;;;;;18.66;100.00;99866.52;1754989;81;20998;-66
2022/06/06 04:37:11;;;;;;;7.65;5.37;;;;;;;18.89;100.00;99867.99;1754789;82;21575;-65
2022/06/06 04:40:00;;;;;;;6.92;5.67;;;;;;;19.05;100.00;99864.20;1754034;82;20986;-64
2022/06/06 04:42:38;;;;;;;5.85;5.20;;;;;;;19.15;100.00;99861.11;1737842;81;20955;-66
2022/06/06 04:45:37;;;;;;;9.03;5.37;;;;;;;19.38;100.00;99860.59;1749705;82;21017;-64
2022/06/06 04:48:05;;;;;;;7.75;5.15;;;;;;;19.65;100.00;99861.40;1737757;82;21146;-66
2022/06/06 04:50:32;;;;;;;5.15;4.65;;;;;;;19.92;100.00;99858.22;1743636;82;21038;-65
2022/06/06 04:53:07;;;;;;;8.45;4.47;;;;;;;20.12;100.00;99856.70;1735931;82;20998;-63
2022/06/06 04:55:36;;;;;;;6.80;4.70;;;;;;;20.30;100.00;99852.14;1733168;82;21077;-64
2022/06/06 04:58:03;;;;;;;5.55;3.85;;;;;;;20.52;100.00;99850.23;1711151;82;21436;-66
2022/06/06 05:00:35;;;;;;;5.12;3.83;;;;;;;20.83;100.00;99850.70;1732593;80;21124;-65
2022/06/06 05:03:01;;;;;;;5.17;3.62;;;;;;;21.09;100.00;99851.28;1724017;82;20975;-66
2022/06/06 05:05:44;;;;;;;8.40;3.72;;;;;;;21.15;100.00;99858.25;1742703;81;21026;-67
2022/06/06 05:08:52;;;;;;;4.20;3.05;;;;;;;21.45;100.00;99862.30;1735540;82;21030;-66
2022/06/06 05:11:40;;;;;;;4.83;3.40;;;;;;;21.76;100.00;99855.13;1740225;82;21126;-67
2022/06/06 05:14:15;;;;;;;4.10;2.83;;;;;;;22.19;100.00;99865.73;1728935;82;21037;-66
2022/06/06 05:17:18;;;;;;;4.08;2.83;;;;;;;22.19;100.00;99865.73;1729576;82;21390;-66
2022/06/06 05:20:21;;;;;;;4.17;3.02;;;;;;;22.39;100.00;99860.43;1727691;82;21040;-66
2022/06/06 05:23:11;;;;;;;4.47;2.67;;;;;;;22.33;100.00;99863.42;1690857;83;21071;-66
2022/06/06 05:26:27;;;;;;;5.70;3.10;;;;;;;22.88;100.00;99866.76;1669370;85;21135;-63
2022/06/06 05:29:19;;;;;;;7.85;3.40;;;;;;;22.84;100.00;99866.65;1681397;83;21494;-64
2022/06/06 05:32:13;;;;;;;8.45;3.67;;;;;;;22.84;100.00;99866.65;1680174;85;21071;-66
2022/06/06 05:35:06;;;;;;;6.60;3.85;;;;;;;23.20;100.00;99878.23;1662584;86;21067;-63
2022/06/06 05:38:17;;;;;;;6.55;4.05;;;;;;;23.20;100.00;99878.23;1676618;85;21586;-64
2022/06/06 05:40:50;;;;;;;5.08;3.20;;;;;;;23.60;100.00;99869.86;1681064;85;21083;-66
2022/06/06 05:43:40;;;;;;;8.10;4.00;;;;;;;23.94;100.00;99867.83;1678208;85;21075;-64
2022/06/06 05:46:20;;;;;;;7.97;4.50;;;;;;;24.17;100.00;99866.06;1685922;85;21107;-64
2022/06/06 05:49:01;;;;;;;7.00;4.25;;;;;;;24.11;100.00;99861.91;1666367;85;21004;-65
2022/06/06 05:52:14;;;;;;;6.50;4.22;;;;;;;24.30;100.00;99862.63;1674525;85;21052;-65
2022/06/06 05:55:16;;;;;;;6.75;4.28;;;;;;;24.48;100.00;99871.40;1675645;85;21508;-64
2022/06/06 05:57:57;;;;;;;8.15;4.50;;;;;;;24.49;100.00;99866.03;1682948;84;21047;-64
2022/06/06 06:00:56;;;;;;;7.03;4.28;;;;;;;24.70;100.00;99866.53;1665462;84;21075;-66
2022/06/06 06:03:43;;;;;;;8.53;4.15;;;;;;;24.87;100.00;99872.34;1665168;85;21055;-66
2022/06/06 06:06:21;;;;;;;6.97;3.67;;;;;;;24.93;93.78;99877.83;1676892;85;21111;-65
2022/06/06 06:09:12;;;;;;;8.20;4.15;;;;;;;25.10;93.00;99877.41;1673058;85;21100;-64
2022/06/06 06:12:15;;;;;;;8.18;3.65;;;;;;;25.59;81.63;99880.44;1674290;85;21594;-65
2022/06/06 06:15:19;;;;;;;7.08;3.35;;;;;;;25.66;79.54;99878.59;1664247;85;21043;-65
2022/06/06 06:17:48;;;;;;;5.33;3.58;;;;;;;25.62;83.90;99884.69;1672615;85;21039;-66
2022/06/06 06:20:18;;;;;;;4.67;3.47;;;;;;;25.60;75.70;99887.63;1660153;85;21075;-66
2022/06/06 06:22:49;;;;;;;4.60;3.17;;;;;;;25.47;77.06;99888.94;1685793;83;21507;-65
2022/06/06 06:25:17;;;;;;;6.72;3.50;;;;;;;25.55;74.44;99892.09;1677402;83;21562;-64
2022/06/06 06:27:46;;;;;;;8.28;3.52;;;;;;;25.85;76.58;99897.29;1674895;85;21023;-66
2022/06/06 06:30:14;;;;;;;5.03;3.35;;;;;;;25.96;72.30;99889.92;1673952;85;21103;-66
2022/06/06 06:33:08;;;;;;;5.35;3.70;;;;;;;26.23;70.18;99887.44;1665515;83;21036;-67
2022/06/06 06:35:46;;;;;;;6.33;3.10;;;;;;;26.23;70.57;99891.63;1685060;85;21075;-67
2022/06/06 06:38:58;;;;;;;5.85;3.22;;;;;;;26.11;62.44;99888.20;1664050;85;21075;-66
2022/06/06 06:41:48;;;;;;;4.08;2.80;;;;;;;25.86;63.08;99895.31;1680111;83;21065;-66
2022/06/06 06:44:29;;;;;;;4.90;3.15;;;;;;;25.76;60.67;99896.70;1672821;83;21968;-66
2022/06/06 06:46:58;;;;;;;5.00;3.00;;;;;;;25.77;63.84;99894.72;1670913;85;21078;-66
2022/06/06 06:49:48;;;;;;;3.98;2.85;;;;;;;25.94;69.89;99892.84;1673238;83;21178;-64
2022/06/06 06:52:37;;;;;;;3.83;2.55;;;;;;;26.21;71.73;99894.00;1665000;85;21016;-65
2022/06/06 06:55:32;;;;;;;3.27;2.37;;;;;;;26.57;63.63;99895.98;1671341;85;21118;-64
2022/06/06 06:58:26;;;;;;;3.35;2.30;;;;;;;26.68;60.36;99890.76;1646948;83;20995;-66
2022/06/06 07:01:01;;;;;;;2.72;1.60;;;;;;;26.75;57.05;99887.27;1674846;85;21054;-65
2022/06/06 07:10:29;;;;;;;2.60;1.87;;;;;;;26.71;53.50;99898.99;1671229;85;21082;-66
2022/06/06 07:13:07;;;;;;;3.05;1.62;;;;;;;26.69;52.96;99896.56;1657362;85;21051;-65
2022/06/06 07:16:24;;;;;;;2.50;1.50;;;;;;;26.74;55.16;99903.83;1683420;85;21103;-65
2022/06/06 07:19:08;;;;;;;2.47;1.52;;;;;;;26.44;49.90;99903.73;1678047;85;21467;-65
2022/06/06 07:21:36;;;;;;;2.90;1.50;;;;;;;25.53;51.18;99902.83;1678449;85;21050;-65
2022/06/06 07:24:09;;;;;;;2.47;1.42;;;;;;;25.11;55.03;99895.74;1670452;83;20980;-66
2022/06/06 07:26:39;;;;;;;4.53;1.25;;;;;;;24.99;55.23;99895.28;1680818;84;21102;-66
2022/06/06 07:29:06;;;;;;;3.02;1.57;;;;;;;24.90;55.36;99898.86;1673620;84;21475;-65
2022/06/06 07:32:18;;;;;;;1.52;1.22;;;;;;;24.93;57.87;99895.34;1681840;83;21071;-67
2022/06/06 07:35:06;;;;;;;2.00;1.10;;;;;;;25.24;55.18;99895.82;1679021;83;21139;-65
2022/06/06 07:37:50;;;;;;;2.00;0.90;;;;;;;25.46;51.96;99902.64;1680310;84;21577;-63
2022/06/06 07:40:35;;;;;;;1.45;1.00;;;;;;;25.75;52.46;99897.89;1733716;82;21053;-65
2022/06/06 07:43:37;;;;;;;1.67;1.00;;;;;;;26.18;52.66;99902.30;1697544;82;21465;-65
2022/06/06 07:46:18;;;;;;;2.52;0.82;;;;;;;26.54;49.34;99900.30;1739501;82;21018;-64
2022/06/06 07:49:01;;;;;;;6.58;1.02;;;;;;;26.75;45.19;99890.67;1726503;82;21489;-64
2022/06/06 07:51:44;;;;;;;2.37;1.17;;;;;;;26.85;43.93;99898.43;1707426;82;21058;-64
2022/06/06 07:54:48;;;;;;;3.12;1.40;;;;;;;27.08;44.28;99908.34;1736321;81;20919;-65
2022/06/06 07:57:56;;;;;;;4.65;1.17;;;;;;;27.17;44.60;99910.87;1680340;84;20968;-64
2022/06/06 08:00:28;;;;;;;1.60;1.05;;;;;;;27.46;44.57;99903.66;1725535;82;21034;-65
2022/06/06 08:03:21;;;;;;;3.12;1.17;;;;;;;27.48;42.26;99897.92;1737736;81;20992;-65
2022/06/06 08:06:05;;;;;;;1.90;1.10;;;;;;;27.56;41.32;99903.78;1660923;85;21016;-66
2022/06/06 08:08:57;;;;;;;3.17;1.10;;;;;;;27.55;40.75;99899.41;1675410;84;21032;-65
2022/06/06 08:11:49;;;;;;;2.12;1.10;;;;;;;27.69;40.10;99902.95;1689592;85;21554;-65
2022/06/06 08:14:54;;;;;;;3.70;1.42;;;;;;;27.56;40.35;99902.39;1673040;84;20991;-64
2022/06/06 08:17:32;;;;;;;3.15;1.30;;;;;;;27.07;40.73;99909.52;1680278;85;21004;-65
2022/06/06 08:20:20;;;;;;;3.25;1.30;;;;;;;26.26;42.17;99903.21;1702650;83;21071;-65
2022/06/06 08:22:47;;;;;;;2.55;1.35;;;;;;;25.62;43.45;99902.00;1672971;85;21036;-64
2022/06/06 08:25:15;;;;;;;2.20;1.32;;;;;;;25.45;45.52;99894.06;1656124;85;21777;-65
2022/06/06 08:27:46;;;;;;;2.77;1.40;;;;;;;25.67;46.52;99890.56;1676463;84;21039;-65
2022/06/06 08:30:14;;;;;;;2.25;1.37;;;;;;;26.11;47.92;99885.41;1717197;82;21014;-65
2022/06/06 08:32:42;;;;;;;5.05;1.80;;;;;;;26.58;46.17;99885.01;1717437;82;21489;-65
2022/06/06 08:35:09;;;;;;;3.58;2.27;;;;;;;26.88;44.99;99884.52;1721809;82;21103;-66
2022/06/06 08:37:53;;;;;;;3.35;1.82;;;;;;;27.16;45.59;99888.29;1730404;81;20998;-65
2022/06/06 08:40:52;;;;;;;2.65;1.10;;;;;;;27.25;42.31;99906.95;1723491;82;21029;-65
2022/06/06 08:43:43;;;;;;;2.08;0.82;;;;;;;26.84;42.26;99901.80;1721159;82;20978;-64
2022/06/06 08:46:23;;;;;;;2.08;1.02;;;;;;;27.02;40.10;99895.89;1716711;82;21037;-65
2022/06/06 08:50:44;;;;;;;1.25;0.88;;;;;;;27.37;39.16;99891.36;1724150;82;21014;-65
2022/06/06 08:51:51;;;;;;;2.05;1.15;;;;;;;27.82;38.60;99888.09;1734034;82;21038;-66
2022/06/06 08:54:35;;;;;;;2.00;1.00;;;;;;;28.05;40.51;99892.35;1739632;82;20951;-66
2022/06/06 08:57:10;;;;;;;2.58;1.10;;;;;;;28.38;39.10;99888.66;1735807;82;21014;-64
2022/06/06 09:00:20;;;;;;;1.75;1.07;;;;;;;28.56;37.35;99889.61;1725470;81;20995;-64
2022/06/06 09:03:16;;;;;;;3.55;1.05;;;;;;;28.60;36.51;99881.23;1723097;82;20982;-64
2022/06/06 09:06:19;;;;;;;3.25;1.20;;;;;;;29.23;40.30;99881.46;1728576;80;21420;-65
2022/06/06 09:09:27;;;;;;;2.00;0.98;;;;;;;29.68;36.68;99882.86;1730279;82;20950;-62
2022/06/06 09:12:35;;;;;;;2.17;0.93;;;;;;;29.42;33.47;99874.14;1728761;82;21014;-62
2022/06/06 09:15:27;;;;;;;2.55;0.88;;;;;;;28.29;34.83;99871.99;1688995;83;21067;-63
2022/06/06 09:18:41;;;;;;;4.03;1.05;;;;;;;27.69;36.47;99879.18;1722184;82;20943;-64
2022/06/06 09:21:25;;;;;;;1.65;1.02;;;;;;;27.35;38.05;99860.17;1716076;83;21042;-61
2022/06/06 09:24:21;;;;;;;2.45;1.05;;;;;;;27.16;35.92;99879.91;1746727;82;20996;-63
2022/06/06 09:27:21;;;;;;;1.72;1.10;;;;;;;26.19;37.19;99882.39;1697406;82;21038;-62
2022/06/06 09:33:50;;;;;;;2.30;1.00;;;;;;;25.07;40.18;99877.56;1811354;79;22935;-61
2022/06/06 09:36:24;;;;;;;2.30;1.15;;;;;;;24.86;41.05;99869.32;1724170;81;21133;-62
2022/06/06 09:39:09;;;;;;;3.37;1.12;;;;;;;24.89;44.06;99880.53;1698234;83;21058;-63
2022/06/06 09:41:40;;;;;;;4.00;1.20;;;;;;;25.02;43.66;99873.66;1673634;85;21043;-64
2022/06/06 09:44:36;;;;;;;2.62;1.40;;;;;;;25.01;42.93;99875.44;1699091;83;21029;-64
2022/06/06 09:47:39;;;;;;;2.58;1.35;;;;;;;24.85;46.01;99878.84;1698558;83;21062;-63
2022/06/06 09:50:26;;;;;;;2.05;1.10;;;;;;;24.49;46.39;99881.34;1658133;86;21087;-62
2022/06/06 09:59:01;;;;;;;1.90;1.10;;;;;;;24.13;50.24;99881.03;1661818;85;21096;-62
2022/06/06 10:00:03;;;;;;;1.55;1.20;;;;;;;24.10;48.48;99876.98;1689468;83;21019;-62
2022/06/06 10:03:12;;;;;;;1.82;1.17;;;;;;;24.00;48.89;99874.73;1680174;85;21062;-63
2022/06/06 10:06:27;;;;;;;5.20;1.40;;;;;;;24.00;48.89;99874.73;1684907;85;21050;-64
2022/06/06 10:09:02;;;;;;;1.57;1.10;;;;;;;23.69;50.84;99874.70;1695152;83;21033;-62
2022/06/06 10:11:56;;;;;;;2.10;1.20;;;;;;;23.44;50.93;99880.95;1673475;84;21532;-62
2022/06/06 10:14:57;;;;;;;4.03;1.42;;;;;;;23.29;50.61;99884.44;1671947;84;20975;-64
2022/06/06 10:17:54;;;;;;;3.37;1.22;;;;;;;23.33;49.28;99879.80;1668492;84;21034;-62
2022/06/06 10:20:37;;;;;;;1.65;0.60;;;;;;;23.43;47.32;99860.45;1675368;84;21657;-63
2022/06/06 10:23:27;;;;;;;1.67;0.62;;;;;;;23.57;44.01;99851.13;1646314;85;21035;-63
2022/06/06 10:26:08;;;;;;;5.33;1.15;;;;;;;23.88;41.75;99854.56;1680492;84;21098;-62
2022/06/06 10:28:57;;;;;;;3.00;1.10;;;;;;;24.17;43.05;99852.16;1675068;84;21022;-62
2022/06/06 10:32:06;;;;;;;2.15;1.15;;;;;;;24.33;44.15;99851.34;1661191;85;21042;-62
2022/06/06 10:34:58;;;;;;;3.08;1.15;;;;;;;24.30;42.12;99850.69;1688311;83;21435;-62
2022/06/06 10:37:54;;;;;;;3.67;1.55;;;;;;;24.10;43.13;99856.12;1665359;82;21063;-63
2022/06/06 10:41:09;;;;;;;2.52;1.30;;;;;;;23.94;46.24;99851.15;1700256;82;21047;-63
2022/06/06 10:43:44;;;;;;;1.70;1.10;;;;;;;23.98;49.81;99853.45;1713628;82;21526;-62
2022/06/06 10:46:24;;;;;;;2.80;1.20;;;;;;;24.15;46.99;99854.50;1691158;83;21051;-61
2022/06/06 10:49:01;;;;;;;1.42;1.00;;;;;;;24.26;48.01;99846.42;1677820;84;21007;-62
2022/06/06 10:51:59;;;;;;;1.67;0.88;;;;;;;24.38;44.53;99842.70;1716405;82;21051;-64
2022/06/06 10:55:11;;;;;;;1.95;1.10;;;;;;;24.45;43.65;99836.73;1692490;82;21051;-64
2022/06/06 10:58:08;;;;;;;1.85;0.90;;;;;;;24.64;43.32;99834.02;1686862;84;21044;-63
2022/06/06 11:00:59;;;;;;;3.07;1.13;;;;;;;24.87;42.25;99826.39;1731543;82;21059;-63
2022/06/06 11:04:07;;;;;;;1.70;1.10;;;;;;;24.98;42.85;99826.82;1706379;82;21418;-63
2022/06/06 11:06:53;;;;;;;2.65;1.10;;;;;;;24.90;43.13;99842.37;1694098;82;20999;-63
2022/06/06 11:09:47;;;;;;;4.22;1.60;;;;;;;24.53;41.44;99830.75;1655337;87;21042;-64
2022/06/06 11:12:45;;;;;;;2.60;1.60;;;;;;;24.17;44.70;99832.69;1708926;82;20999;-63
2022/06/06 11:15:12;;;;;;;1.70;1.32;;;;;;;24.05;45.83;99832.77;1693875;82;21079;-63
2022/06/06 11:18:05;;;;;;;1.98;1.20;;;;;;;24.21;49.87;99829.99;1715951;82;20976;-64
2022/06/06 11:21:05;;;;;;;2.33;1.40;;;;;;;24.34;47.22;99818.20;1711260;83;21558;-63
2022/06/06 11:23:47;;;;;;;2.77;1.20;;;;;;;24.39;48.80;99816.52;1697121;82;21042;-63
2022/06/06 11:27:00;;;;;;;5.25;1.55;;;;;;;24.37;47.20;99825.23;1694460;83;20999;-62
2022/06/06 11:29:56;;;;;;;4.22;1.35;;;;;;;24.37;47.20;99825.23;1711330;82;21039;-63
2022/06/06 11:32:59;;;;;;;1.85;1.17;;;;;;;24.35;47.22;99815.03;1715138;83;21027;-64
2022/06/06 11:35:47;;;;;;;3.10;1.35;;;;;;;24.46;46.75;99818.06;1633785;86;21065;-63
2022/06/06 11:41:28;;;;;;;3.17;1.62;;;;;;;24.73;46.16;99808.73;1774918;79;22731;-65
2022/06/06 11:44:16;;;;;;;2.22;1.17;;;;;;;24.71;46.18;99816.66;1745222;81;21039;-66
2022/06/06 11:47:12;;;;;;;2.45;1.30;;;;;;;24.71;48.42;99809.70;1747243;81;21094;-64
2022/06/06 11:50:02;;;;;;;3.85;1.50;;;;;;;24.68;47.01;99802.89;1748531;81;21383;-64
2022/06/06 11:52:46;;;;;;;3.15;1.40;;;;;;;24.58;47.67;99799.88;1730341;81;20983;-64
2022/06/06 11:55:59;;;;;;;3.42;1.35;;;;;;;24.58;47.67;99799.88;1750882;81;21079;-63
2022/06/06 11:58:57;;;;;;;2.25;1.20;;;;;;;24.65;49.71;99810.59;1743360;81;21004;-64
2022/06/06 12:01:36;;;;;;;2.45;1.20;;;;;;;24.66;49.56;99808.00;1663839;81;21975;-65
2022/06/06 12:04:32;;;;;;;3.42;1.30;;;;;;;24.35;48.40;99817.01;1729678;81;21087;-64
2022/06/06 12:07:16;;;;;;;4.58;1.30;;;;;;;24.10;45.58;99814.98;1750572;81;21110;-65
2022/06/06 12:10:15;;;;;;;2.02;1.17;;;;;;;23.86;46.70;99813.20;1730144;82;20987;-64
2022/06/06 12:13:04;;;;;;;3.22;1.27;;;;;;;23.88;46.87;99812.86;1741477;81;21554;-64
2022/06/06 12:16:02;;;;;;;3.72;1.50;;;;;;;24.05;44.30;99813.30;1727009;82;21106;-65
2022/06/06 12:18:59;;;;;;;1.65;1.00;;;;;;;24.30;45.51;99808.95;1730685;82;20990;-65
2022/06/06 12:22:13;;;;;;;2.12;1.10;;;;;;;24.50;44.64;99809.22;1738604;81;21038;-63
2022/06/06 12:25:06;;;;;;;3.77;1.10;;;;;;;24.60;43.96;99801.70;1645593;82;21122;-64
2022/06/06 12:28:09;;;;;;;2.45;1.07;;;;;;;24.84;44.71;99803.44;1740228;81;20945;-64
2022/06/06 12:31:03;;;;;;;1.90;1.27;;;;;;;24.88;43.17;99805.71;1735406;81;21043;-65
2022/06/06 12:33:58;;;;;;;2.50;1.35;;;;;;;24.64;41.92;99806.76;1741399;81;20967;-64
2022/06/06 12:36:36;;;;;;;2.72;1.50;;;;;;;24.35;42.55;99796.95;1734894;81;21035;-64
2022/06/06 12:39:14;;;;;;;2.10;1.20;;;;;;;24.36;43.44;99790.81;1738244;82;21086;-64
2022/06/06 12:42:04;;;;;;;2.10;1.20;;;;;;;24.47;43.35;99785.72;1649222;85;21079;-64
2022/06/06 12:44:54;;;;;;;1.65;1.07;;;;;;;24.61;41.39;99791.61;1723658;82;21530;-64
2022/06/06 12:47:44;;;;;;;2.87;1.20;;;;;;;24.73;43.22;99782.30;1720587;82;21031;-64
2022/06/06 12:50:46;;;;;;;1.40;1.10;;;;;;;24.73;43.22;99782.30;1715952;82;21053;-64
2022/06/06 12:53:30;;;;;;;2.95;1.10;;;;;;;24.73;42.29;99783.69;1715709;82;21013;-63
2022/06/06 12:56:43;;;;;;;4.55;1.20;;;;;;;24.62;42.17;99777.88;1722977;82;21036;-63
2022/06/06 12:59:42;;;;;;;2.60;1.17;;;;;;;24.56;42.55;99788.28;1718190;82;21000;-64
2022/06/06 13:02:54;;;;;;;1.90;1.10;;;;;;;24.49;41.78;99777.80;1715795;82;20975;-65
2022/06/06 13:05:40;;;;;;;2.98;1.30;;;;;;;24.49;41.78;99777.80;1711456;82;21573;-65
2022/06/06 13:08:30;;;;;;;2.00;1.20;;;;;;;24.69;42.59;99780.05;1726733;82;20979;-64
2022/06/06 13:11:13;;;;;;;2.30;1.25;;;;;;;24.64;42.32;99778.92;1734303;82;21095;-65
2022/06/06 13:13:54;;;;;;;2.08;1.10;;;;;;;24.64;42.32;99778.92;1716560;82;21020;-65